Tiempo atmosférico en la estación meteorológica de Lanaja, Huesca (380 m.)



Fecha
DESCASC
Temp. máxima en grados centígrados (hora)
DESCASC
Temp. mínima en grados centígrados (hora)
DESCASC
Temp. media en grados centígrados
DESCASC
Racha de viento máxima en m/sg (hora)
DESCASC
Velocidad máxima media en intervalos de 10 minutos(hora)
DESCASC
Precipitaciones diarias en mm
DESCASC
Precipitaciones de 00:00 a 06:00 en mm
DESCASC
Precipitaciones de 06:00 a 12:00 en mm
DESCASC
Precipitaciones de 12:00 a 18:00 en mm
DESCASC
Precipitaciones de 18:00 a 24:00 en mm
DESCASC
02-04-2020 13.8 (16:10) 7.3 (04:20) 10.6 5 (22:40) 3.06 (22:00) 0.4 0 0.4 0 0
01-04-2020 9.7 (12:30) 6.8 (05:50) 8.3 9.72 (13:20) 6.11 (13:30) 11.8 0.2 2.6 5.8 3.2
31-03-2020 7.3 (22:00) 0 (00:00) 3.7 3.61 (22:00) 2.78 (15:20) 18.6 6.6 2.6 6.6 2.8
30-03-2020 9.4 (15:40) 3.2 (00:00) 6.3 16.11 (02:10) 11.67 (03:40) 0.2 0 0 0 0.2
29-03-2020 17.6 (16:20) 5.6 (00:00) 11.6 15 (18:30) 10.83 (18:30) 0 0 0 0 0
28-03-2020 17.2 (17:40) 4.6 (00:00) 10.9 7.22 (22:40) 5.28 (23:00) 0 0 0 0 0
27-03-2020 13.3 (15:30) 1.8 (00:00) 7.6 5.28 (13:50) 3.33 (14:00) 0 0 0 0 0
26-03-2020 13.9 (15:40) 2.2 (00:00) 8 15 (10:00) 10 (09:50) -- -- -- -- --
25-03-2020 8.8 (00:00) 4.8 (00:00) 6.8 10 (08:20) 5.83 (08:10) -- -- -- -- --
24-03-2020 14.8 (15:00) 7.3 (00:00) 11.1 8.89 (22:50) 6.11 (22:50) -- -- -- -- --
23-03-2020 15 (14:00) 8.1 (00:00) 11.6 13.61 (14:20) 7.78 (14:20) -- -- -- -- --
22-03-2020 16.1 (14:30) 5.9 (04:30) 11 7.5 (17:40) 5 (17:40) -- -- -- -- --
21-03-2020 15.2 (15:50) 4.7 (00:00) 9.9 7.5 (14:00) 3.61 (14:00) -- -- -- -- --
20-03-2020 15 (16:50) 5 (00:00) 10 8.33 (13:30) 5 (13:20) -- -- -- -- --
19-03-2020 15.9 (16:10) 7.4 (00:00) 11.6 6.67 (16:00) 4.44 (21:40) -- -- -- -- --
18-03-2020 15.2 (13:50) 8.4 (00:00) 11.8 3.33 (14:00) 2.22 (20:30) -- -- -- -- --
17-03-2020 14.7 (16:20) 10.6 (00:00) 12.7 13.06 (00:50) 6.67 (00:10) -- -- -- -- --
16-03-2020 11.3 (23:50) 9.1 (00:00) 10.2 13.33 (10:20) 7.22 (09:50) -- 0.6 -- -- --
15-03-2020 17.1 (14:40) 5 (00:00) 11.1 15 (19:50) 8.33 (19:50) 2.4 0 0 0.2 2.2
14-03-2020 18.3 (17:00) 5 (00:00) 11.6 7.78 (00:20) 6.11 (00:40) 0 0 0 0 0
13-03-2020 16.6 (16:40) 9.2 (07:50) 12.9 7.78 (23:59) 6.11 (22:20) 0.2 0.2 0 0 0
12-03-2020 23.1 (16:50) 9.5 (00:00) 16.3 20.28 (21:40) 13.06 (21:40) 0.2 0 0 0 0.2
11-03-2020 24.3 (17:40) 8.6 (00:00) 16.4 10.56 (02:00) 7.78 (00:10) 0 0 0 0 0
10-03-2020 21 (16:00) 6.7 (00:00) 13.8 15.56 (00:30) 10 (00:40) 0 0 0 0 0
09-03-2020 13.8 (15:00) 7.5 (00:00) 10.7 22.78 (13:30) 16.11 (13:40) 0 0 0 0 0
08-03-2020 16.7 (14:40) 4.7 (00:00) 10.7 11.67 (13:50) 9.17 (13:10) 0 0 0 0 0
07-03-2020 15.2 (14:40) 3.9 (00:00) 9.5 21.67 (13:30) 14.44 (15:10) 0 0 0 0 0
06-03-2020 9.4 (11:30) 3.9 (00:00) 6.6 26.39 (14:00) 19.44 (14:10) 0.4 0 0 0.4 0
05-03-2020 18.3 (13:20) 6.5 (00:00) 12.4 22.22 (13:50) 13.33 (14:00) 0 0 0 0 0

Gráficas

Temp. máximas Temp. mínimas Temp. medias Precipitaciones Rachas de viento máximas Velocidades máximas media en intervalos de 10 minutos

Datos horarios

Fecha y hora oficial Temperatura (ºC) Velocidad del viento (km/h) Dirección del viento Racha (km/h) Dirección de racha Precipitación (mm) Presión (hPa) Tendencia (hPa) Humedad (%)
2020-04-03 23:00:00 10.3 13 Oeste 17 Oeste 0 -- -- 67
2020-04-03 22:00:00 10.4 9 Sudoeste 13 Sudoeste 0 -- -- 69
2020-04-03 21:00:00 12 9 Oeste 13 Oeste 0 -- -- 63
2020-04-03 20:00:00 14.2 8 Noroeste 13 Noroeste 0 -- -- 59
2020-04-03 19:00:00 15.3 9 Noroeste 14 Noroeste 0 -- -- 54
2020-04-03 18:00:00 15.5 8 Oeste 16 Noroeste 0 -- -- 51
2020-04-03 17:00:00 14.9 10 Noroeste 19 Oeste 0 -- -- 55
2020-04-03 16:00:00 14.2 14 Noroeste 22 Norte 0 -- -- 55
2020-04-03 15:00:00 13.8 9 Noroeste 20 Noroeste 0 -- -- 59
2020-04-03 14:00:00 12.5 10 Norte 18 Norte 0 -- -- 59
2020-04-03 13:00:00 11.7 9 Noroeste 22 Noroeste 0 -- -- 63
2020-04-03 12:00:00 10.2 9 Noroeste 22 Norte 0 -- -- 64
2020-04-03 11:00:00 8.6 12 Noroeste 22 Noroeste 0 -- -- 66
2020-04-03 10:00:00 7.5 14 Noroeste 20 Noroeste 0 -- -- 70
2020-04-03 09:00:00 5.5 6 Noroeste 10 Noroeste 0 -- -- 78
2020-04-03 08:00:00 4.5 9 Noroeste 21 Noroeste 0 -- -- 79
2020-04-03 07:00:00 5.4 15 Noroeste 23 Noroeste 0 -- -- 75
2020-04-03 06:00:00 4.7 14 Noroeste 26 Noroeste 0 -- -- 76
2020-04-03 05:00:00 5.2 22 Noroeste 28 Noroeste 0 -- -- 74
2020-04-03 04:00:00 4.8 20 Noroeste 27 Noroeste 0 -- -- 76
2020-04-03 03:00:00 6.5 21 Noroeste 29 Noroeste 0 -- -- 74
2020-04-03 02:00:00 7.1 18 Noroeste 24 Noroeste 0 -- -- 77
2020-04-03 01:00:00 7.8 15 Noroeste 23 Noroeste 0 -- -- 76
2020-04-03 00:00:00 9.2 8 Noroeste 17 Noroeste 0 -- -- 76
2020-04-02 23:00:00 10.5 9 Noroeste 18 Noroeste 0 -- -- 74
2020-04-02 22:00:00 11.5 11 Oeste 13 Oeste 0 -- -- 78
2020-04-02 21:00:00 11.7 6 Sudoeste 9 Sudoeste 0 -- -- 78
2020-04-02 20:00:00 12.4 8 Oeste 10 Oeste 0 -- -- 70
2020-04-02 19:00:00 12.8 9 Noroeste 14 Noroeste 0 -- -- 67
2020-04-02 18:00:00 13.2 10 Noroeste 14 Norte 0 -- -- 68
2020-04-02 17:00:00 13.3 9 Noroeste 15 Noroeste 0 -- -- 68
2020-04-02 16:00:00 13.3 8 Noroeste 14 Noroeste 0 -- -- 70
2020-04-02 15:00:00 11 8 Noroeste 13 Noroeste 0 -- -- 83
2020-04-02 14:00:00 10.6 10 Noroeste 17 Noroeste 0 -- -- 82
2020-04-02 13:00:00 10.6 4 Sudeste 8 Este 0 -- -- 79
2020-04-02 12:00:00 9.7 4 Sur 9 Sur 0 -- -- 84
2020-04-02 11:00:00 9 4 Oeste 8 Oeste 0 -- -- 88
2020-04-02 10:00:00 8.4 4 Sudoeste 8 Noroeste 0 -- -- 91
2020-04-02 09:00:00 7.6 5 Noroeste 8 Noroeste 0.4 -- -- 94
2020-04-02 08:00:00 7.3 6 Noroeste 8 Noroeste 0 -- -- 93
2020-04-02 07:00:00 7.4 0 Calma 3 Nordeste 0 -- -- 94
2020-04-02 06:00:00 7.3 3 Norte 7 Norte 0 -- -- 94
2020-04-02 05:00:00 7.3 5 Norte 8 Norte 0 -- -- 94
2020-04-02 04:00:00 7.5 2 Norte 4 Noroeste 0 -- -- 92
2020-04-02 03:00:00 7.5 0 Calma 4 Oeste 0 -- -- 91
2020-04-02 02:00:00 7.6 0 Calma 6 Sudeste 0 -- -- 90
2020-04-02 01:00:00 7.8 5 Sudeste 14 Sudeste 0 -- -- 89
2020-04-02 00:00:00 8.1 5 Sudeste 12 Este 0 -- -- 91
2020-04-01 23:00:00 7.8 5 Noroeste 9 Noroeste 0.2 -- -- 94
2020-04-01 22:00:00 8 6 Noroeste 7 Noroeste 0.4 -- -- 93
2020-04-01 21:00:00 8.3 3 Sudeste 16 Este 0.8 -- -- 92
2020-04-01 20:00:00 8.8 5 Sudeste 10 Sudeste 1 -- -- 92
2020-04-01 19:00:00 9 3 Sudeste 10 Este 0.8 -- -- 91
2020-04-01 18:00:00 9.1 6 Este 15 Este 1.2 -- -- 91
2020-04-01 17:00:00 9 6 Sudeste 21 Sudeste 1.8 -- -- 92
2020-04-01 16:00:00 8.9 11 Sudeste 18 Sur 2 -- -- 90
2020-04-01 15:00:00 9.4 3 Noroeste 15 Sudeste 0.6 -- -- 88
2020-04-01 14:00:00 9.5 10 Sudeste 35 Sudeste 0.2 -- -- 83
2020-04-01 13:00:00 9.6 21 Sudeste 34 Sudeste 0 -- -- 82
2020-04-01 12:00:00 9.5 18 Sudeste 31 Sudeste 0 -- -- 84
2020-04-01 11:00:00 9 9 Este 21 Este 0 -- -- 88
2020-04-01 10:00:00 8.4 4 Este 11 Sudeste 0.2 -- -- 92
2020-04-01 09:00:00 8.1 8 Sudeste 19 Este 1.4 -- -- 92
2020-04-01 08:00:00 7.8 6 Sudeste 14 Este 1 -- -- 91
2020-04-01 07:00:00 7.2 6 Sudeste 16 Sudeste 0 -- -- 91
2020-04-01 06:00:00 6.8 4 Sudeste 7 Sudeste 0 -- -- 92
2020-04-01 05:00:00 7.1 4 Sudeste 6 Sudeste 0 -- -- 91
2020-04-01 04:00:00 7.3 2 Sudeste 5 Sudeste 0 -- -- 91
2020-04-01 03:00:00 7.4 3 Sudeste 10 Este 0.2 -- -- 92
2020-04-01 02:00:00 7.3 2 Sur 5 Sudeste 0 -- -- 93
2020-04-01 01:00:00 7.2 2 Sur 6 Sudoeste 0 -- -- 93
2020-04-01 00:00:00 7.1 5 Sudoeste 7 Sudoeste 0 -- -- 93
2020-03-31 23:00:00 7.2 0 Calma 10 Sudeste 0.2 -- -- 92
2020-03-31 22:00:00 7.3 6 Sudeste 13 Sudeste 0 -- -- 92
2020-03-31 21:00:00 7 3 Sudeste 5 Sur 0 -- -- 92
2020-03-31 20:00:00 6.8 3 Sur 8 Sudoeste 1.2 -- -- 93
2020-03-31 19:00:00 6.6 4 Oeste 9 Sur 1.4 -- -- 93
2020-03-31 18:00:00 6.2 4 Oeste 9 Noroeste 0.4 -- -- 93
2020-03-31 17:00:00 5.4 7 Noroeste 9 Noroeste 1.2 -- -- 93
2020-03-31 16:00:00 4.7 6 Noroeste 13 Norte 1.2 -- -- 93
2020-03-31 15:00:00 4.1 7 Norte 10 Norte 1.8 -- -- 93
2020-03-31 14:00:00 3.4 6 Norte 9 Norte 1.4 -- -- 94
2020-03-31 13:00:00 2.6 6 Norte 8 Norte 0.6 -- -- 95
2020-03-31 12:00:00 1.7 5 Norte 6 Norte 0.4 -- -- 95
2020-03-31 11:00:00 1.2 6 Noroeste 10 Oeste 0.4 -- -- 94
2020-03-31 10:00:00 0.8 6 Oeste 10 Oeste -- -- -- 95
2020-03-31 09:00:00 0.4 6 Oeste 8 Oeste -- -- -- 94
2020-03-31 08:00:00 0.2 2 Oeste 5 Norte -- -- -- 94
2020-03-31 07:00:00 0.1 4 Noroeste 7 Norte -- -- -- 94
2020-03-31 06:00:00 0 3 Noroeste 5 Noroeste -- -- -- 94
2020-03-31 05:00:00 0.2 4 Noroeste 5 Noroeste -- -- -- 92
2020-03-31 04:00:00 0.6 3 Noroeste 6 Noroeste -- -- -- 91
2020-03-31 03:00:00 1.6 4 Noroeste 6 Noroeste -- -- -- 88
2020-03-31 02:00:00 2.5 3 Norte 4 Nordeste -- -- -- 85
2020-03-31 01:00:00 2.8 0 Calma 5 Norte -- -- -- 81
2020-03-31 00:00:00 3.3 4 Nordeste 8 Norte -- -- -- 80
2020-03-30 23:00:00 3.8 4 Norte 14 Noroeste -- -- -- 73
2020-03-30 22:00:00 5.1 6 Oeste 12 Sudoeste -- -- -- 60
2020-03-30 21:00:00 5.4 5 Sur 16 Sudoeste -- -- -- 58
2020-03-30 20:00:00 5.9 9 Noroeste 30 Oeste -- -- -- 56
2020-03-30 19:00:00 7.6 8 Noroeste 19 Noroeste -- -- -- 45
2020-03-30 18:00:00 8.1 14 Noroeste 24 Noroeste -- -- -- 42
2020-03-30 17:00:00 8.3 13 Noroeste 27 Noroeste -- -- -- 39
2020-03-30 16:00:00 8.7 21 Noroeste 33 Oeste -- -- -- 37
2020-03-30 15:00:00 8.8 24 Noroeste 39 Noroeste -- -- -- 39
2020-03-30 14:00:00 7.3 26 Noroeste 41 Noroeste -- -- -- 43
2020-03-30 13:00:00 6.4 32 Noroeste 48 Noroeste -- -- -- 46
2020-03-30 12:00:00 4.8 32 Noroeste 56 Noroeste -- -- -- 48
2020-03-30 11:00:00 4 38 Noroeste 53 Noroeste -- -- -- 52
2020-03-30 10:00:00 4.1 37 Noroeste 52 Noroeste -- -- -- 54
2020-03-30 09:00:00 3.6 33 Noroeste 49 Noroeste -- -- -- 62
2020-03-30 08:00:00 3.3 23 Noroeste 40 Noroeste -- -- -- 67
2020-03-30 07:00:00 3.2 30 Noroeste 48 Noroeste -- -- -- 71
2020-03-30 06:00:00 3.7 34 Noroeste 55 Noroeste -- -- -- 71
2020-03-30 05:00:00 4.5 41 Noroeste 57 Noroeste -- -- -- 71
2020-03-30 04:00:00 5.7 37 Noroeste 57 Noroeste -- -- -- 70
2020-03-30 03:00:00 6.5 37 Noroeste 58 Noroeste -- -- -- 73
2020-03-30 02:00:00 7.2 35 Noroeste 54 Noroeste -- -- -- 76
2020-03-30 01:00:00 7.8 35 Noroeste 56 Noroeste -- -- -- 76
2020-03-30 00:00:00 8.3 35 Noroeste 53 Noroeste -- -- -- 72
2020-03-29 23:00:00 8.6 35 Noroeste 47 Noroeste -- -- -- 70
2020-03-29 22:00:00 9.3 35 Noroeste 50 Noroeste -- -- -- 66
2020-03-29 21:00:00 10.4 38 Noroeste 53 Noroeste -- -- -- 63
2020-03-29 20:00:00 12.1 35 Noroeste 53 Noroeste -- -- -- 57
2020-03-29 19:00:00 14.6 36 Noroeste 54 Noroeste -- -- -- 48
2020-03-29 18:00:00 16.1 37 Noroeste 50 Noroeste -- -- -- 41
2020-03-29 17:00:00 17 32 Noroeste 45 Noroeste -- -- -- 40
2020-03-29 16:00:00 17.4 27 Noroeste 38 Oeste -- -- -- 39
2020-03-29 15:00:00 16.4 26 Noroeste 36 Noroeste -- -- -- 43
2020-03-29 14:00:00 15.2 21 Noroeste 35 Noroeste -- -- -- 43
2020-03-29 13:00:00 14 19 Noroeste 31 Noroeste -- -- -- 46
2020-03-29 12:00:00 12.6 19 Noroeste 35 Noroeste -- -- -- 49
2020-03-29 11:00:00 11 23 Noroeste 31 Noroeste -- -- -- 52
2020-03-29 10:00:00 9.2 11 Noroeste 17 Noroeste -- -- -- 62
2020-03-29 09:00:00 6.8 11 Noroeste 21 Noroeste -- -- -- 72
2020-03-29 08:00:00 6 17 Noroeste 24 Noroeste -- -- -- 73
2020-03-29 07:00:00 6 12 Noroeste 23 Noroeste -- -- -- 74
2020-03-29 06:00:00 6.9 20 Noroeste 25 Noroeste -- -- -- 72
2020-03-29 05:00:00 8.2 15 Noroeste 21 Noroeste -- -- -- 65
2020-03-29 03:00:00 8.6 3 Oeste 14 Norte -- -- -- 62
2020-03-29 01:00:00 11.8 9 Oeste 22 Oeste -- -- -- 50
2020-03-29 00:00:00 12 15 Oeste 22 Oeste -- -- -- 47
2020-03-28 23:00:00 11.7 19 Oeste 26 Oeste -- -- -- 52
2020-03-28 22:00:00 12.3 18 Oeste 24 Sudoeste -- -- -- 50
2020-03-28 21:00:00 12.5 13 Oeste 21 Oeste -- -- -- 47
2020-03-28 20:00:00 13.3 11 Oeste 17 Oeste -- -- -- 47
2020-03-28 19:00:00 14.9 11 Oeste 14 Oeste -- -- -- 45
2020-03-28 18:00:00 17.1 11 Oeste 18 Sudoeste -- -- -- 39
2020-03-28 17:00:00 16.5 7 Noroeste 19 Oeste -- -- -- 40
2020-03-28 16:00:00 16.5 7 Noroeste 18 Noroeste -- -- -- 40
2020-03-28 15:00:00 16.3 10 Noroeste 21 Noroeste -- -- -- 42
2020-03-28 14:00:00 16.1 6 Oeste 17 Oeste -- -- -- 41
2020-03-28 13:00:00 14.9 9 Noroeste 21 Noroeste -- -- -- 44
2020-03-28 12:00:00 13.6 8 Norte 17 Noroeste -- -- -- 46
2020-03-28 11:00:00 12.9 6 Oeste 15 Oeste -- -- -- 54
2020-03-28 10:00:00 10.2 7 Norte 12 Norte -- -- -- 66
2020-03-28 09:00:00 7.7 6 Noroeste 10 Noroeste -- -- -- 75
2020-03-28 08:00:00 5.4 6 Noroeste 8 Noroeste -- -- -- 77
2020-03-28 07:00:00 5 4 Norte 9 Noroeste -- -- -- 74
2020-03-28 06:00:00 5.3 8 Noroeste 12 Noroeste -- -- -- 74
2020-03-28 05:00:00 5.9 3 Norte 4 Noroeste -- -- -- 73
2020-03-28 04:00:00 5.8 0 Calma 5 Oeste -- -- -- 69
2020-03-28 03:00:00 6.4 0 Calma 5 Norte -- -- -- 67
2020-03-28 02:00:00 5.8 5 Noroeste 8 Nordeste -- -- -- 68
2020-03-28 01:00:00 6.8 0 Calma 10 Este -- -- -- 66
2020-03-28 00:00:00 7.1 4 Este 8 Nordeste -- -- -- 68
2020-03-27 23:00:00 8 0 Calma 8 Noroeste -- -- -- 61
2020-03-27 22:00:00 8.9 3 Sudoeste 6 Noroeste -- -- -- 62
2020-03-27 21:00:00 9.9 7 Noroeste 12 Noroeste -- -- -- 53
2020-03-27 20:00:00 10.1 10 Oeste 13 Oeste -- -- -- 54
2020-03-27 19:00:00 10.9 10 Noroeste 14 Noroeste -- -- -- 58
2020-03-27 18:00:00 12.3 9 Noroeste 17 Oeste -- -- -- 49
2020-03-27 17:00:00 12.6 8 Noroeste 15 Oeste -- -- -- 49
2020-03-27 16:00:00 13 4 Sudoeste 11 Sudoeste -- -- -- 44
2020-03-27 15:00:00 11.7 6 Noroeste 16 Noroeste -- -- -- 47
2020-03-27 14:00:00 11.5 12 Noroeste 19 Noroeste -- -- -- 51
2020-03-27 13:00:00 11 5 Noroeste 18 Norte -- -- -- 55
2020-03-27 12:00:00 9.3 5 Noroeste 18 Norte -- -- -- 59
2020-03-27 11:00:00 8.2 8 Noroeste 17 Noroeste -- -- -- 65
2020-03-27 10:00:00 7.3 5 Noroeste 11 Noroeste -- -- -- 72
2020-03-27 09:00:00 4.5 3 Norte 8 Norte -- -- -- 81
2020-03-27 08:00:00 3 2 Sudoeste 7 Noroeste -- -- -- 83
2020-03-27 07:00:00 2.2 8 Noroeste 9 Noroeste -- -- -- 85
2020-03-27 06:00:00 2 5 Oeste 8 Oeste -- -- -- 86
2020-03-27 05:00:00 2 5 Oeste 9 Sudoeste -- -- -- 88
2020-03-27 04:00:00 2 8 Sudoeste 12 Sudoeste -- -- -- 87
2020-03-27 03:00:00 2.6 3 Sudoeste 7 Sudoeste -- -- -- 84
2020-03-27 02:00:00 3 4 Sudoeste 8 Sudoeste -- -- -- 85
2020-03-27 01:00:00 3.4 0 Calma 6 Norte -- -- -- 83
2020-03-27 00:00:00 4.1 4 Nordeste 14 Nordeste -- -- -- 84
2020-03-26 23:00:00 4.9 3 Este 12 Sudeste -- -- -- 81
2020-03-26 22:00:00 5.4 8 Sur 19 Sudeste -- -- -- 78
2020-03-26 21:00:00 5.6 13 Sudeste 30 Sur -- -- -- 76
2020-03-26 20:00:00 6.1 22 Sudeste 42 Sudeste -- -- -- 73
2020-03-26 19:00:00 7.3 17 Sudeste 42 Sudeste -- -- -- 68
2020-03-26 18:00:00 8.4 29 Sudeste 46 Sudeste -- -- -- 66
2020-03-26 17:00:00 12.4 9 Norte 25 Este -- -- -- 42
2020-03-26 16:00:00 13.4 8 Norte 24 Noroeste -- -- -- 29
2020-03-26 15:00:00 13.1 15 Noroeste 31 Noroeste -- -- -- 30
2020-03-26 14:00:00 12.6 17 Noroeste 35 Noroeste -- -- -- 35
2020-03-26 13:00:00 11.9 24 Noroeste 44 Noroeste -- -- -- 37
2020-03-26 12:00:00 11.1 31 Noroeste 48 Noroeste -- -- -- 36
2020-03-26 11:00:00 10.3 34 Noroeste 53 Noroeste -- -- -- 44
2020-03-26 10:00:00 9.4 35 Noroeste 54 Norte -- -- -- 58
2020-03-26 09:00:00 7.9 29 Noroeste 42 Noroeste -- -- -- 67
2020-03-26 08:00:00 4.2 0 Calma 15 Noroeste -- -- -- 91
2020-03-26 07:00:00 2.7 14 Norte 25 Noroeste -- -- -- 88
2020-03-26 06:00:00 2.5 10 Noroeste 14 Noroeste -- -- -- 86
2020-03-26 05:00:00 3.8 7 Oeste 18 Oeste -- -- -- 88
2020-03-26 04:00:00 4.6 13 Oeste 23 Oeste -- -- -- 86
2020-03-26 03:00:00 4.7 13 Oeste 17 Oeste -- -- -- 88
2020-03-26 02:00:00 4.7 9 Noroeste 12 Noroeste -- -- -- 88
2020-03-26 01:00:00 5.3 10 Noroeste 12 Oeste -- -- -- 86
2020-03-26 00:00:00 5.5 6 Noroeste 9 Noroeste -- -- -- 89
2020-03-25 23:00:00 6 2 Oeste 8 Noroeste -- -- -- 84
2020-03-25 22:00:00 5.9 6 Noroeste 8 Noroeste -- -- -- 85
2020-03-25 21:00:00 6.5 0 Calma 10 Este -- -- -- 79
2020-03-25 20:00:00 6.7 6 Este 8 Sudeste -- -- -- 77
2020-03-25 19:00:00 7.2 5 Este 12 Este -- -- -- 75
2020-03-25 18:00:00 7.4 6 Sudeste 14 Sudeste -- -- -- 73
2020-03-25 17:00:00 7.5 8 Sudeste 15 Este -- -- -- 73
2020-03-25 16:00:00 7.4 5 Sudeste 16 Este -- -- -- 72
2020-03-25 15:00:00 7 7 Sudeste 15 Este -- -- -- 73
2020-03-25 14:00:00 6.4 10 Sudeste 24 Sudeste -- -- -- 74
2020-03-25 13:00:00 6.1 14 Sudeste 23 Sudeste -- -- -- 75
2020-03-25 12:00:00 5.3 15 Sudeste 27 Sudeste -- -- -- 78
2020-03-25 11:00:00 4.9 13 Sudeste 33 Sudeste -- -- -- 80
2020-03-25 10:00:00 4.9 19 Sudeste 32 Sudeste -- -- -- 81
2020-03-25 09:00:00 5 15 Sudeste 36 Sudeste -- -- -- 85
2020-03-25 08:00:00 5.4 14 Sudeste 30 Este -- -- -- 86
2020-03-25 07:00:00 6.1 17 Sudeste 24 Sudeste -- -- -- 90
2020-03-25 06:00:00 6.3 11 Sudeste 20 Sudeste -- -- -- 92
2020-03-25 05:00:00 6.5 13 Sudeste 19 Sudeste -- -- -- 93
2020-03-25 04:00:00 6.6 10 Sudeste 16 Sudeste -- -- -- 93
2020-03-25 03:00:00 6.8 14 Sur 26 Sudeste -- -- -- 91
2020-03-25 02:00:00 7.1 20 Sudeste 29 Sudeste -- -- -- 89
2020-03-25 01:00:00 8.2 12 Sudeste 26 Sudeste -- -- -- 82
2020-03-25 00:00:00 8.8 14 Sudeste 32 Sudeste -- -- -- 78
2020-03-24 23:00:00 9.1 20 Sudeste 32 Sudeste -- -- -- 75
2020-03-24 22:00:00 9.6 16 Sur 29 Sudeste -- -- -- 76
2020-03-24 21:00:00 10.6 14 Sur 24 Sur -- -- -- 68
2020-03-24 20:00:00 11.2 14 Sur 28 Sur -- -- -- 68
2020-03-24 19:00:00 12.5 15 Sudoeste 28 Sur -- -- -- 62
2020-03-24 18:00:00 14 16 Sudoeste 24 Sudoeste -- -- -- 58
2020-03-24 17:00:00 14.2 15 Sudoeste 25 Sudoeste -- -- -- 57
2020-03-24 16:00:00 14.5 14 Sudoeste 24 Sudoeste -- -- -- 61
2020-03-24 15:00:00 14.8 8 Sur 15 Sur -- -- -- 57
2020-03-24 14:00:00 13.8 6 Sur 16 Sur -- -- -- 59
2020-03-24 13:00:00 13.1 9 Sudeste 20 Sudeste -- -- -- 64
2020-03-24 12:00:00 12.4 11 Sudeste 25 Sudeste -- -- -- 70
2020-03-24 11:00:00 11.6 12 Sudeste 23 Este -- -- -- 69
2020-03-24 10:00:00 10.6 12 Sudeste 22 Sudeste -- -- -- 79
2020-03-24 09:00:00 9.2 7 Este 14 Este -- -- -- 87
2020-03-24 08:00:00 8 0 Calma 5 Sur -- -- -- 93
2020-03-24 07:00:00 7.8 3 Sudeste 9 Este -- -- -- 91
2020-03-24 06:00:00 7.6 5 Nordeste 7 Nordeste -- -- -- 92
2020-03-24 05:00:00 8.1 5 Sur 8 Este -- -- -- 90
2020-03-24 04:00:00 8.5 6 Este 12 Este -- -- -- 89
2020-03-24 03:00:00 8.7 8 Este 18 Este -- -- -- 88
2020-03-24 02:00:00 9.2 8 Sudeste 18 Sudeste -- -- -- 87
2020-03-24 01:00:00 9.8 5 Sudeste 11 Sudeste -- -- -- 91
2020-03-24 00:00:00 10.1 4 Este 8 Este -- -- -- 92
2020-03-23 23:00:00 10.2 4 Este 14 Este -- -- -- 91
2020-03-23 22:00:00 10.2 5 Este 10 Sudeste -- -- -- 92
2020-03-23 21:00:00 10.4 5 Sur 11 Sudoeste -- -- -- 90
2020-03-23 20:00:00 10.6 8 Sudeste 13 Sudeste -- -- -- 89
2020-03-23 19:00:00 10.6 9 Sudeste 14 Sudeste -- -- -- 86
2020-03-23 18:00:00 10.8 9 Sudeste 20 Sudeste -- -- -- 87
2020-03-23 17:00:00 11 17 Sur 41 Sur -- -- -- 86
2020-03-23 16:00:00 12.6 15 Sudeste 27 Sudeste -- -- -- 82
2020-03-23 15:00:00 11.3 7 Sur 49 Sudeste -- -- -- 87
2020-03-23 14:00:00 15 17 Sur 31 Sudeste -- -- -- 61
2020-03-23 13:00:00 14.1 18 Sudeste 28 Sudeste -- -- -- 68
2020-03-23 12:00:00 13.3 11 Sudeste 18 Este -- -- -- 73
2020-03-23 11:00:00 12.4 10 Sudeste 21 Este -- -- -- 75
2020-03-23 10:00:00 11.6 7 Sudeste 13 Sudeste -- -- -- 79
2020-03-23 09:00:00 9.8 2 Norte 7 Norte -- -- -- 87
2020-03-23 08:00:00 9 0 Calma 3 Sudeste -- -- -- 91
2020-03-23 07:00:00 8.7 0 Calma 7 Sur -- -- -- 89
2020-03-23 06:00:00 8.4 3 Norte 8 Noroeste -- -- -- 91
2020-03-23 05:00:00 8.2 6 Noroeste 8 Noroeste -- -- -- 90
2020-03-23 04:00:00 8.1 5 Noroeste 7 Norte -- -- -- 89
2020-03-23 03:00:00 8.3 4 Noroeste 8 Norte -- -- -- 88
2020-03-23 02:00:00 8.9 4 Norte 5 Norte -- -- -- 85
2020-03-23 01:00:00 8.8 4 Norte 7 Norte -- -- -- 86
2020-03-23 00:00:00 9 3 Sudoeste 9 Nordeste -- -- -- 81
2020-03-22 23:00:00 9.5 7 Nordeste 9 Nordeste -- -- -- 79
2020-03-22 22:00:00 9.8 0 Calma 10 Sur -- -- -- 76
2020-03-22 21:00:00 10.2 8 Sur 11 Sur -- -- -- 75
2020-03-22 20:00:00 11.2 6 Sur 16 Sur -- -- -- 72
2020-03-22 19:00:00 12.5 14 Sur 22 Sur -- -- -- 69
2020-03-22 18:00:00 14.2 15 Sur 27 Sudoeste -- -- -- 61
2020-03-22 17:00:00 15.6 13 Sur 20 Sur -- -- -- 55
2020-03-22 16:00:00 15.2 9 Sudeste 20 Sudeste -- -- -- 50
2020-03-22 15:00:00 15.7 12 Este 26 Este -- -- -- 49
2020-03-22 14:00:00 15.6 8 Sudeste 22 Este -- -- -- 51
2020-03-22 13:00:00 14 7 Sudeste 14 Este -- -- -- 62
2020-03-22 12:00:00 12.9 8 Sudeste 15 Este -- -- -- 66
2020-03-22 11:00:00 11.4 5 Nordeste 10 Nordeste -- -- -- 73
2020-03-22 10:00:00 9.9 4 Noroeste 10 Nordeste -- -- -- 80
2020-03-22 09:00:00 8.6 4 Norte 7 Norte -- -- -- 83
2020-03-22 08:00:00 6.7 4 Oeste 7 Noroeste -- -- -- 89
2020-03-22 07:00:00 6.2 3 Sudoeste 8 Sudoeste -- -- -- 89
2020-03-22 06:00:00 5.9 6 Sudoeste 9 Oeste -- -- -- 88
2020-03-22 05:00:00 6 0 Calma 6 Noroeste -- -- -- 88
2020-03-22 04:00:00 6.1 5 Norte 6 Noroeste -- -- -- 87
2020-03-22 03:00:00 6.5 2 Sudoeste 3 Sudoeste -- -- -- 83
2020-03-22 02:00:00 6.9 2 Sudoeste 6 Sudeste -- -- -- 79
2020-03-22 01:00:00 7.9 5 Sudeste 12 Sudeste -- -- -- 76
2020-03-22 00:00:00 8.6 9 Sudeste 15 Sudeste -- -- -- 76
2020-03-21 23:00:00 9.6 8 Sudeste 15 Sur -- -- -- 72
2020-03-21 22:00:00 9.8 9 Sur 13 Sur -- -- -- 69
2020-03-21 21:00:00 10.8 4 Sur 10 Sur -- -- -- 63
2020-03-21 20:00:00 12.2 3 Sudoeste 13 Este -- -- -- 55
2020-03-21 19:00:00 13.3 8 Este 14 Este -- -- -- 53
2020-03-21 18:00:00 14.7 7 Sudeste 15 Este -- -- -- 47
2020-03-21 17:00:00 14.8 10 Este 19 Este -- -- -- 46
2020-03-21 16:00:00 15.1 8 Sudeste 20 Sudeste -- -- -- 47
2020-03-21 15:00:00 14.4 11 Sudeste 24 Este -- -- -- 47
2020-03-21 14:00:00 14.1 13 Sur 27 Sur -- -- -- 49
2020-03-21 13:00:00 13.6 10 Este 19 Este -- -- -- 52
2020-03-21 12:00:00 12.7 8 Sudeste 17 Sur -- -- -- 54
2020-03-21 11:00:00 11 9 Sudeste 14 Sudeste -- -- -- 64
2020-03-21 10:00:00 9.9 4 Sudeste 9 Sudeste -- -- -- 77
2020-03-21 09:00:00 7.6 3 Sur 6 Sudoeste -- -- -- 86
2020-03-21 08:00:00 5.5 4 Sudoeste 8 Sudoeste -- -- -- 91
2020-03-21 07:00:00 4.8 5 Sudoeste 7 Sudoeste -- -- -- 90
2020-03-21 06:00:00 4.7 5 Sudoeste 8 Sudoeste -- -- -- 90
2020-03-21 05:00:00 5 4 Nordeste 7 Este -- -- -- 89
2020-03-21 04:00:00 5.4 4 Sudoeste 6 Sudoeste -- -- -- 86
2020-03-21 03:00:00 6 4 Sur 6 Sudoeste -- -- -- 88
2020-03-21 02:00:00 6.3 3 Sur 13 Sudeste -- -- -- 85
2020-03-21 01:00:00 7.1 4 Sur 8 Sudeste -- -- -- 84
2020-03-21 00:00:00 8 5 Sudeste 11 Sudeste -- -- -- 81
2020-03-20 23:00:00 8.9 8 Sudeste 16 Sudeste -- -- -- 76
2020-03-20 22:00:00 9.8 11 Sudeste 20 Sudeste -- -- -- 72
2020-03-20 21:00:00 10.4 15 Sur 22 Sur -- -- -- 69
2020-03-20 20:00:00 10.9 13 Sur 17 Sur -- -- -- 70
2020-03-20 19:00:00 13.1 9 Sur 19 Este -- -- -- 62
2020-03-20 18:00:00 14.3 10 Este 25 Sudeste -- -- -- 58
2020-03-20 17:00:00 14.8 14 Este 24 Sudeste -- -- -- 54
2020-03-20 16:00:00 14.4 13 Sudeste 27 Sudeste -- -- -- 57
2020-03-20 15:00:00 14.4 15 Sudeste 26 Sudeste -- -- -- 57
2020-03-20 14:00:00 14.1 17 Sur 30 Sudeste -- -- -- 60
2020-03-20 13:00:00 12.9 13 Sudeste 23 Sudeste -- -- -- 67
2020-03-20 12:00:00 11.6 9 Este 18 Sudeste -- -- -- 74
2020-03-20 11:00:00 9.6 11 Sudeste 18 Sudeste -- -- -- 78
2020-03-20 10:00:00 8.2 8 Sudeste 14 Sudeste -- -- -- 83
2020-03-20 09:00:00 6.6 6 Sur 10 Sur -- -- -- 92
2020-03-20 08:00:00 5.3 4 Sur 8 Sur -- -- -- 94
2020-03-20 07:00:00 5.4 4 Sur 7 Sudoeste -- -- -- 93
2020-03-20 06:00:00 5.2 0 Calma 8 Sudeste -- -- -- 91
2020-03-20 05:00:00 5.8 4 Este 11 Sudeste -- -- -- 90
2020-03-20 04:00:00 5.3 2 Nordeste 8 Sudeste -- -- -- 89
2020-03-20 03:00:00 6.2 4 Sudeste 11 Este -- -- -- 87
2020-03-20 02:00:00 6.8 8 Sudeste 14 Sudeste -- -- -- 84
2020-03-20 01:00:00 7.4 10 Sudeste 14 Sudeste -- -- -- 80
2020-03-20 00:00:00 8.1 6 Sudeste 22 Sudeste -- -- -- 78
2020-03-19 23:00:00 9.5 12 Sudeste 24 Sudeste -- -- -- 68
2020-03-19 22:00:00 10.3 13 Sudeste 24 Sudeste -- -- -- 65
2020-03-19 21:00:00 11.2 15 Sur 22 Sudeste -- -- -- 66
2020-03-19 20:00:00 12.8 12 Sudeste 18 Sudeste -- -- -- 68
2020-03-19 19:00:00 14 8 Sudeste 19 Sudeste -- -- -- 69
2020-03-19 18:00:00 14.9 13 Sudeste 23 Sudeste -- -- -- 64
2020-03-19 17:00:00 15.5 13 Sudeste 22 Sudeste -- -- -- 60
2020-03-19 16:00:00 15.8 13 Sudeste 24 Este -- -- -- 57
2020-03-19 15:00:00 15.8 8 Sudeste 20 Sudeste -- -- -- 64
2020-03-19 14:00:00 15.1 9 Sur 17 Sudeste -- -- -- 67
2020-03-19 13:00:00 14.3 9 Sudeste 17 Sudeste -- -- -- 71
2020-03-19 12:00:00 12.6 8 Este 14 Este -- -- -- 78
2020-03-19 11:00:00 10.8 5 Sudeste 11 Sur -- -- -- 87
2020-03-19 10:00:00 8.6 6 Sudeste 10 Sur -- -- -- 94
2020-03-19 09:00:00 8 0 Calma 8 Sur -- -- -- 94
2020-03-19 08:00:00 7.8 3 Este 4 Este -- -- -- 93
2020-03-19 07:00:00 7.7 0 Calma 7 Nordeste -- -- -- 93
2020-03-19 06:00:00 8.5 3 Sur 5 Sudoeste -- -- -- 90
2020-03-19 05:00:00 8.6 4 Sudoeste 7 Sudoeste -- -- -- 89
2020-03-19 04:00:00 8.9 4 Sudoeste 6 Sudoeste -- -- -- 87
2020-03-19 03:00:00 9 5 Sudoeste 6 Sudoeste -- -- -- 87
2020-03-19 02:00:00 9.2 2 Noroeste 6 Nordeste -- -- -- 87
2020-03-19 01:00:00 10.2 0 Calma 5 Nordeste -- -- -- 84
2020-03-19 00:00:00 10.6 3 Este 7 Nordeste -- -- -- 83
2020-03-18 23:00:00 11 4 Sudoeste 7 Sudoeste -- -- -- 83
2020-03-18 22:00:00 11.1 4 Sudoeste 6 Sudoeste -- -- -- 84
2020-03-18 21:00:00 11.6 6 Oeste 9 Sudoeste -- -- -- 82
2020-03-18 20:00:00 12.6 5 Sur 7 Este -- -- -- 82
2020-03-18 19:00:00 13.5 6 Este 8 Este -- -- -- 79
2020-03-18 18:00:00 14.2 5 Este 10 Este -- -- -- 77
2020-03-18 17:00:00 14.6 5 Sudeste 10 Sur -- -- -- 74
2020-03-18 16:00:00 14.7 5 Sudeste 12 Sudeste -- -- -- 71
2020-03-18 15:00:00 14.8 7 Sudeste 12 Sudeste -- -- -- 71
2020-03-18 14:00:00 15 7 Sudeste 12 Sudeste -- -- -- 68
2020-03-18 13:00:00 14.2 6 Nordeste 12 Este -- -- -- 77
2020-03-18 12:00:00 13 5 Nordeste 9 Nordeste -- -- -- 83
2020-03-18 11:00:00 11.9 2 Nordeste 6 Sur -- -- -- 85
2020-03-18 10:00:00 10.7 0 Calma 5 Sur -- -- -- 88
2020-03-18 09:00:00 9.4 0 Calma 5 Noroeste -- -- -- 92
2020-03-18 08:00:00 8.7 0 Calma 4 Nordeste -- -- -- 91
2020-03-18 07:00:00 8.4 3 Sudoeste 4 Sur -- -- -- 89
2020-03-18 06:00:00 8.6 0 Calma 6 Norte -- -- -- 89
2020-03-18 05:00:00 9.7 3 Nordeste 6 Sudoeste -- -- -- 88
2020-03-18 04:00:00 10.1 4 Sudoeste 7 Sudoeste -- -- -- 85
2020-03-18 03:00:00 10.4 5 Sudoeste 6 Sudoeste -- -- -- 84
2020-03-18 02:00:00 10.2 0 Calma 5 Noroeste -- -- -- 84
2020-03-18 01:00:00 10.6 3 Oeste 5 Oeste -- -- -- 83
2020-03-18 00:00:00 11.1 4 Sudoeste 8 Sudoeste -- -- -- 81
2020-03-17 23:00:00 11 4 Oeste 6 Sudoeste -- -- -- 81
2020-03-17 22:00:00 11.3 3 Sudoeste 10 Noroeste -- -- -- 82
2020-03-17 21:00:00 11.6 4 Sudoeste 6 Oeste -- -- -- 82
2020-03-17 20:00:00 12.9 4 Sudoeste 9 Sudeste -- -- -- 78
2020-03-17 19:00:00 13.6 4 Sur 12 Sudeste -- -- -- 76
2020-03-17 18:00:00 14.2 7 Sudeste 23 Sudeste -- -- -- 71
2020-03-17 17:00:00 14.6 12 Sudeste 22 Sudeste -- -- -- 71
2020-03-17 16:00:00 14.6 14 Sudeste 26 Sudeste -- -- -- 69
2020-03-17 15:00:00 14.3 15 Sudeste 30 Sudeste -- -- -- 71
2020-03-17 14:00:00 13.9 15 Sudeste 28 Sudeste -- -- -- 72
2020-03-17 13:00:00 12.5 7 Sudeste 18 Sudeste -- -- -- 83
2020-03-17 12:00:00 12 11 Sudeste 20 Sudeste -- -- -- 80
2020-03-17 11:00:00 11.1 6 Sur 14 Sudeste -- -- -- 83
2020-03-17 10:00:00 10.9 6 Sudeste 21 Sudeste -- -- -- 83
2020-03-17 09:00:00 11.3 9 Sudeste 19 Este -- -- -- 74
2020-03-17 08:00:00 11 8 Este 18 Este -- -- -- 74
2020-03-17 07:00:00 10.6 5 Sudeste 17 Sudeste -- -- -- 78
2020-03-17 06:00:00 11 9 Sudeste 15 Sudeste -- -- -- 77
2020-03-17 05:00:00 11 6 Sudeste 19 Este -- -- -- 81
2020-03-17 04:00:00 11.2 13 Sudeste 29 Este -- -- -- 80
2020-03-17 03:00:00 11.3 17 Este 33 Este -- -- -- 79
2020-03-17 02:00:00 11.4 18 Este 33 Este -- -- -- 79
2020-03-17 01:00:00 11.4 20 Este 47 Este -- -- -- 79
2020-03-17 00:00:00 11.3 18 Sudeste 34 Este -- -- -- 80
2020-03-16 23:00:00 10.6 10 Sudeste 21 Sudeste -- -- -- 87
2020-03-16 22:00:00 10.5 14 Sudeste 28 Sudeste -- -- -- 86
2020-03-16 21:00:00 10.8 12 Sudeste 21 Este -- -- -- 85
2020-03-16 20:00:00 10.4 7 Este 21 Sudeste -- -- -- 90
2020-03-16 19:00:00 10.7 13 Este 23 Nordeste -- -- -- 88
2020-03-16 18:00:00 10.2 7 Nordeste 24 Este -- -- -- 92
2020-03-16 17:00:00 10.3 20 Este 34 Este -- -- -- 89
2020-03-16 16:00:00 10.7 15 Este 23 Este -- -- -- 79
2020-03-16 15:00:00 10.7 13 Este 26 Este -- -- -- 80
2020-03-16 14:00:00 10.3 15 Este 33 Este -- -- -- 81
2020-03-16 13:00:00 9.8 25 Este 43 Este -- -- -- 82
2020-03-16 12:00:00 10 19 Este 43 Este -- -- -- 86
2020-03-16 11:00:00 9.3 19 Sudeste 48 Sudeste 0 -- -- 90
2020-03-16 10:00:00 9.3 23 Sudeste 42 Sudeste 0 -- -- 93
2020-03-16 09:00:00 9.5 21 Sudeste 41 Sudeste 0 -- -- 94
2020-03-16 08:00:00 9.4 24 Sudeste 40 Sudeste 0.2 -- -- 94
2020-03-16 07:00:00 9.4 20 Sudeste 37 Este 0 -- -- 94
2020-03-16 06:00:00 9.8 20 Sudeste 31 Sudeste 0 -- -- 94
2020-03-16 05:00:00 10.1 11 Sudeste 20 Sudeste 0 -- -- 94
2020-03-16 04:00:00 10.2 12 Sudeste 25 Sudeste 0 -- -- 93
2020-03-16 03:00:00 10.3 17 Sudeste 26 Sudeste 0 -- -- 91
2020-03-16 02:00:00 10.3 12 Sudeste 23 Sudeste 0 -- -- 91
2020-03-16 01:00:00 10.5 14 Sudeste 25 Este 0.6 -- -- 91
2020-03-16 00:00:00 10.6 18 Sudeste 31 Sudeste 0 -- -- 88
2020-03-15 23:00:00 10.5 21 Sudeste 36 Sudeste 0.4 -- -- 87
2020-03-15 22:00:00 -- 16 Sudeste 34 Sudeste 0 -- -- --
2020-03-15 21:00:00 10.8 17 Sudeste 48 Sudeste 0 -- -- 86
2020-03-15 20:00:00 11.1 28 Sudeste 54 Sudeste 1.2 -- -- 86
2020-03-15 19:00:00 12.3 19 Sudeste 32 Sudeste 0.6 -- -- 87
2020-03-15 18:00:00 13.5 19 Sudeste 30 Sudeste 0 -- -- 82
2020-03-15 17:00:00 14.2 11 Este 26 Sudeste 0.2 -- -- 78
2020-03-15 16:00:00 15.9 12 Sudeste 34 Sudeste 0 -- -- 61
2020-03-15 15:00:00 16.9 19 Sudeste 34 Sudeste 0 -- -- 56
2020-03-15 14:00:00 16.4 18 Sudeste 35 Sudeste 0 -- -- 59
2020-03-15 13:00:00 15.3 15 Sudeste 28 Sudeste 0 -- -- 64
2020-03-15 12:00:00 12.1 10 Sudeste 18 Sudeste 0 -- -- 79
2020-03-15 11:00:00 9.2 11 Sudeste 19 Sudeste 0 -- -- 88
2020-03-15 10:00:00 8.2 8 Este 15 Este 0 -- -- 93
2020-03-15 09:00:00 6.6 6 Sur 15 Sudeste 0 -- -- 93
2020-03-15 08:00:00 5.9 6 Sur 12 Sur 0 -- -- 87
2020-03-15 07:00:00 5.1 5 Sudoeste 6 Sudoeste 0 -- -- 87
2020-03-15 06:00:00 5.7 3 Sudoeste 5 Sudoeste 0 -- -- 86
2020-03-15 05:00:00 5.8 5 Sudoeste 6 Sudoeste 0 -- -- 80
2020-03-15 04:00:00 6.6 0 Calma 4 Sur 0 -- -- 79
2020-03-15 03:00:00 7.3 0 Calma 5 Noroeste 0 -- -- 76
2020-03-15 02:00:00 7.2 4 Sudoeste 7 Sudoeste 0 -- -- 75
2020-03-15 01:00:00 7.7 5 Noroeste 8 Noroeste 0 -- -- 72
2020-03-15 00:00:00 9.2 2 Nordeste 4 Nordeste 0 -- -- 61
2020-03-14 23:00:00 9.4 0 Calma 6 Este 0 -- -- 55
2020-03-14 22:00:00 11 4 Norte 7 Nordeste 0 -- -- 52
2020-03-14 21:00:00 13.3 2 Oeste 10 Nordeste 0 -- -- 45
2020-03-14 20:00:00 12.7 2 Sur 12 Noroeste 0 -- -- 48
2020-03-14 19:00:00 16 11 Oeste 14 Oeste 0 -- -- 36
2020-03-14 18:00:00 18 9 Noroeste 16 Noroeste 0 -- -- 36
2020-03-14 17:00:00 18.3 10 Noroeste 19 Noroeste 0 -- -- 35
2020-03-14 16:00:00 17.8 8 Noroeste 17 Norte 0 -- -- 35
2020-03-14 15:00:00 16.7 12 Norte 20 Noroeste 0 -- -- 39
2020-03-14 14:00:00 15.4 8 Norte 19 Noroeste 0 -- -- 47
2020-03-14 13:00:00 14.6 10 Noroeste 21 Noroeste 0 -- -- 50
2020-03-14 12:00:00 12.9 10 Norte 18 Norte 0 -- -- 56
2020-03-14 11:00:00 11.4 10 Norte 18 Oeste 0 -- -- 59
2020-03-14 10:00:00 9.7 7 Noroeste 15 Noroeste 0 -- -- 63
2020-03-14 09:00:00 7.7 12 Noroeste 21 Noroeste 0 -- -- 75
2020-03-14 08:00:00 5 7 Noroeste 27 Noroeste 0 -- -- 85
2020-03-14 07:00:00 5.3 19 Noroeste 26 Noroeste 0 -- -- 83
2020-03-14 06:00:00 6.3 18 Noroeste 27 Noroeste 0 -- -- 79
2020-03-14 05:00:00 6.1 12 Noroeste 23 Noroeste 0 -- -- 81
2020-03-14 04:00:00 7 13 Noroeste 25 Noroeste 0 -- -- 79
2020-03-14 03:00:00 7.6 21 Noroeste 27 Noroeste 0 -- -- 77
2020-03-14 02:00:00 8.8 16 Noroeste 28 Noroeste 0 -- -- 75
2020-03-14 01:00:00 9.1 19 Noroeste 28 Noroeste 0 -- -- 74
2020-03-14 00:00:00 9.6 22 Oeste 28 Oeste 0 -- -- 75
2020-03-13 23:00:00 9.7 21 Noroeste 27 Noroeste 0 -- -- 78
2020-03-13 22:00:00 10.1 21 Oeste 25 Noroeste 0 -- -- 76
2020-03-13 21:00:00 10.7 11 Oeste 17 Noroeste 0 -- -- 77
2020-03-13 20:00:00 11.4 13 Noroeste 19 Norte 0 -- -- 80
2020-03-13 19:00:00 14.2 8 Noroeste 9 Noroeste 0 -- -- 72
2020-03-13 18:00:00 14.9 6 Noroeste 10 Noroeste 0 -- -- 70
2020-03-13 17:00:00 15.8 5 Noroeste 11 Sur 0 -- -- 64
2020-03-13 16:00:00 16.1 6 Sur 13 Sudeste 0 -- -- 64
2020-03-13 15:00:00 15.6 6 Este 13 Este 0 -- -- 65
2020-03-13 14:00:00 15 6 Este 12 Nordeste 0 -- -- 67
2020-03-13 13:00:00 13.4 7 Nordeste 19 Norte 0 -- -- 69
2020-03-13 12:00:00 13.7 8 Norte 14 Norte 0 -- -- 68
2020-03-13 11:00:00 12.8 6 Noroeste 12 Oeste 0 -- -- 71
2020-03-13 10:00:00 11.6 8 Norte 13 Nordeste 0 -- -- 75
2020-03-13 09:00:00 10.3 5 Noroeste 14 Oeste 0 -- -- 79
2020-03-13 08:00:00 9.2 11 Oeste 14 Oeste 0 -- -- 85
2020-03-13 07:00:00 9.5 9 Noroeste 17 Oeste 0 -- -- 84
2020-03-13 06:00:00 10 4 Sudoeste 7 Sudoeste 0 -- -- 83
2020-03-13 05:00:00 10.3 2 Sudoeste 11 Oeste 0 -- -- 82
2020-03-13 04:00:00 10.1 11 Noroeste 15 Noroeste 0 -- -- 83
2020-03-13 03:00:00 11 14 Noroeste 19 Oeste 0 -- -- 82
2020-03-13 02:00:00 11.8 13 Noroeste 19 Noroeste 0 -- -- 79
2020-03-13 01:00:00 12.8 15 Noroeste 22 Noroeste 0.2 -- -- 75
2020-03-13 00:00:00 13.3 9 Oeste 24 Noroeste 0 -- -- 77
2020-03-12 23:00:00 12.7 12 Noroeste 27 Oeste 0 -- -- 82
2020-03-12 22:00:00 15.2 17 Noroeste 73 Oeste -- -- -- 74
2020-03-12 21:00:00 15.5 11 Noroeste 23 Noroeste 0 -- -- 71
2020-03-12 20:00:00 18.3 10 Noroeste 18 Noroeste 0 -- -- 61
2020-03-12 19:00:00 20 8 Noroeste 11 Noroeste 0 -- -- 54
2020-03-12 18:00:00 22.6 6 Sur 11 Sudeste 0 -- -- 44
2020-03-12 17:00:00 22.9 6 Nordeste 12 Nordeste 0 -- -- 46
2020-03-12 16:00:00 22.7 8 Nordeste 12 Nordeste 0 -- -- 41
2020-03-12 15:00:00 21.7 7 Nordeste 13 Nordeste 0 -- -- 45
2020-03-12 14:00:00 21.9 8 Este 14 Este 0 -- -- 45
2020-03-12 13:00:00 20.7 6 Sudeste 13 Sur 0 -- -- 46
2020-03-12 12:00:00 18.4 8 Sudeste 14 Sudeste 0 -- -- 53
2020-03-12 11:00:00 16.9 8 Sudeste 12 Sur 0 -- -- 56
2020-03-12 10:00:00 15.3 3 Sudeste 8 Este 0 -- -- 64
2020-03-12 09:00:00 12.8 5 Este 7 Sudoeste 0 -- -- 69
2020-03-12 08:00:00 9.5 5 Sudoeste 8 Norte 0 -- -- 77
2020-03-12 07:00:00 9.8 5 Norte 8 Nordeste 0 -- -- 78
2020-03-12 06:00:00 11.5 3 Sur 8 Sur 0 -- -- 72
2020-03-12 05:00:00 11.3 7 Sur 9 Sur 0 -- -- 70
2020-03-12 04:00:00 12 5 Sudoeste 8 Sudoeste 0 -- -- 72
2020-03-12 03:00:00 13.3 0 Calma 5 Sudoeste 0 -- -- 68
2020-03-12 02:00:00 13.4 5 Sudoeste 5 Sudoeste 0 -- -- 68
2020-03-12 01:00:00 13.9 0 Calma 5 Sudoeste 0 -- -- 67
2020-03-12 00:00:00 14 2 Este 6 Norte 0 -- -- 67
2020-03-11 23:00:00 15 0 Calma 5 Sudeste 0 -- -- 63
2020-03-11 22:00:00 15.1 4 Sur 8 Sudeste 0 -- -- 54
2020-03-11 21:00:00 15.6 3 Sudoeste 10 Sur 0 -- -- 59
2020-03-11 20:00:00 18.2 8 Sur 15 Sudeste 0 -- -- 53
2020-03-11 19:00:00 21.1 8 Sudeste 10 Sudeste 0 -- -- 44
2020-03-11 18:00:00 23.8 6 Noroeste 12 Oeste 0 -- -- 30
2020-03-11 17:00:00 23.9 7 Noroeste 15 Noroeste 0 -- -- 30
2020-03-11 16:00:00 24 7 Norte 18 Noroeste 0 -- -- 31
2020-03-11 15:00:00 23.5 9 Noroeste 20 Noroeste 0 -- -- 33
2020-03-11 14:00:00 22.4 10 Noroeste 20 Noroeste 0 -- -- 38
2020-03-11 13:00:00 21.2 13 Noroeste 24 Noroeste 0 -- -- 40
2020-03-11 12:00:00 18.8 5 Este 11 Este 0 -- -- 51
2020-03-11 11:00:00 15.3 4 Este 12 Sudeste 0 -- -- 56
2020-03-11 10:00:00 13 5 Nordeste 12 Norte 0 -- -- 59
2020-03-11 09:00:00 9.8 12 Norte 15 Norte 0 -- -- 64
2020-03-11 08:00:00 9 12 Norte 23 Noroeste 0 -- -- 59
2020-03-11 07:00:00 10.8 15 Noroeste 23 Noroeste 0 -- -- 56
2020-03-11 06:00:00 11.1 5 Oeste 18 Oeste 0 -- -- 49
2020-03-11 05:00:00 12.7 9 Norte 32 Oeste 0 -- -- 42
2020-03-11 04:00:00 13.1 17 Oeste 29 Oeste 0 -- -- 37
2020-03-11 03:00:00 14.2 23 Oeste 36 Noroeste 0 -- -- 35
2020-03-11 02:00:00 13.7 28 Noroeste 38 Oeste 0 -- -- 34
2020-03-11 01:00:00 13.9 27 Oeste 36 Oeste 0 -- -- 31
2020-03-11 00:00:00 14.4 29 Noroeste 38 Oeste 0 -- -- 32
2020-03-10 23:00:00 15.3 28 Oeste 38 Noroeste 0 -- -- 31
2020-03-10 22:00:00 15.8 26 Oeste 35 Oeste 0 -- -- 36
2020-03-10 21:00:00 15.8 18 Oeste 30 Oeste 0 -- -- 39
2020-03-10 20:00:00 16.5 18 Oeste 27 Oeste 0 -- -- 39
2020-03-10 19:00:00 17.4 15 Oeste 28 Noroeste 0 -- -- 40
2020-03-10 18:00:00 19.1 23 Noroeste 33 Noroeste 0 -- -- 40
2020-03-10 17:00:00 20.3 24 Noroeste 42 Noroeste 0 -- -- 37
2020-03-10 16:00:00 21 28 Noroeste 41 Noroeste 0 -- -- 33
2020-03-10 15:00:00 20.4 20 Noroeste 36 Oeste 0 -- -- 33
2020-03-10 14:00:00 20.1 21 Noroeste 32 Noroeste 0 -- -- 26
2020-03-10 13:00:00 17.9 22 Noroeste 32 Noroeste 0 -- -- 35
2020-03-10 12:00:00 13.2 5 Nordeste 11 Este 0 -- -- 62
2020-03-10 11:00:00 11.3 6 Nordeste 11 Nordeste 0 -- -- 68
2020-03-10 10:00:00 10 6 Nordeste 10 Norte 0 -- -- 71
2020-03-10 09:00:00 7.5 4 Nordeste 18 Noroeste 0 -- -- 75
2020-03-10 08:00:00 7.8 13 Noroeste 24 Noroeste 0 -- -- 69
2020-03-10 07:00:00 7.3 14 Noroeste 23 Noroeste 0 -- -- 71
2020-03-10 06:00:00 7.1 9 Oeste 24 Oeste 0 -- -- 69
2020-03-10 05:00:00 7.8 13 Oeste 32 Noroeste 0 -- -- 66
2020-03-10 04:00:00 7.3 25 Noroeste 41 Noroeste 0 -- -- 69
2020-03-10 03:00:00 8 26 Noroeste 42 Noroeste 0 -- -- 66
2020-03-10 02:00:00 8.2 31 Noroeste 46 Noroeste 0 -- -- 67
2020-03-10 01:00:00 8.1 33 Noroeste 56 Noroeste 0 -- -- 69
2020-03-10 00:00:00 8.2 32 Noroeste 58 Noroeste 0 -- -- 64
2020-03-09 23:00:00 8.1 37 Noroeste 59 Noroeste 0 -- -- 63
2020-03-09 22:00:00 8.3 41 Noroeste 65 Noroeste 0 -- -- 61
2020-03-09 21:00:00 8.4 47 Noroeste 68 Noroeste 0 -- -- 58
2020-03-09 20:00:00 8.8 38 Noroeste 70 Oeste 0 -- -- 63
2020-03-09 19:00:00 10 44 Noroeste 62 Noroeste 0 -- -- 60
2020-03-09 18:00:00 11.5 45 Noroeste 70 Noroeste 0 -- -- 53
2020-03-09 17:00:00 12.8 47 Noroeste 69 Noroeste 0 -- -- 48
2020-03-09 16:00:00 13.2 53 Noroeste 78 Noroeste 0 -- -- 49
2020-03-09 15:00:00 13.8 51 Noroeste 74 Noroeste 0 -- -- 45
2020-03-09 14:00:00 13.2 51 Noroeste 82 Noroeste 0 -- -- 47
2020-03-09 13:00:00 12 52 Noroeste 73 Noroeste 0 -- -- 55
2020-03-09 12:00:00 11.6 44 Noroeste 71 Noroeste 0 -- -- 58
2020-03-09 11:00:00 10 44 Noroeste 71 Noroeste 0 -- -- 62
2020-03-09 10:00:00 9.5 39 Noroeste 60 Noroeste 0 -- -- 63
2020-03-09 09:00:00 8.5 41 Noroeste 58 Noroeste 0 -- -- 65
2020-03-09 08:00:00 7.8 38 Noroeste 53 Noroeste 0 -- -- 66
2020-03-09 07:00:00 7.7 32 Noroeste 50 Noroeste 0 -- -- 68
2020-03-09 06:00:00 8.4 36 Noroeste 61 Noroeste 0 -- -- 67
2020-03-09 05:00:00 9 34 Noroeste 49 Noroeste 0 -- -- 65
2020-03-09 04:00:00 9.1 30 Noroeste 42 Noroeste 0 -- -- 68
2020-03-09 03:00:00 8.9 21 Oeste 34 Oeste 0 -- -- 71
2020-03-09 02:00:00 8.7 26 Noroeste 33 Noroeste 0 -- -- 75
2020-03-09 01:00:00 9.3 20 Noroeste 30 Noroeste 0 -- -- 75
2020-03-09 00:00:00 9.4 19 Oeste 25 Oeste 0 -- -- 73
2020-03-08 23:00:00 9.6 14 Noroeste 22 Noroeste 0 -- -- 71
2020-03-08 22:00:00 10.4 15 Oeste 27 Oeste 0 -- -- 66
2020-03-08 21:00:00 11.9 19 Oeste 25 Oeste 0 -- -- 57
2020-03-08 20:00:00 13.2 16 Oeste 22 Oeste 0 -- -- 49
2020-03-08 19:00:00 14 15 Oeste 30 Oeste 0 -- -- 46
2020-03-08 18:00:00 15.1 23 Oeste 38 Oeste 0 -- -- 42
2020-03-08 17:00:00 16.1 28 Noroeste 37 Noroeste 0 -- -- 40
2020-03-08 16:00:00 16.6 18 Oeste 42 Noroeste 0 -- -- 41
2020-03-08 15:00:00 16.4 27 Oeste 42 Noroeste 0 -- -- 44
2020-03-08 14:00:00 16.1 32 Noroeste 42 Noroeste 0 -- -- 47
2020-03-08 13:00:00 15.2 29 Noroeste 39 Noroeste 0 -- -- 48
2020-03-08 12:00:00 14.2 24 Noroeste 34 Noroeste 0 -- -- 52
2020-03-08 11:00:00 12.2 23 Noroeste 33 Noroeste 0 -- -- 58
2020-03-08 10:00:00 10.8 19 Noroeste 27 Oeste 0 -- -- 61
2020-03-08 09:00:00 9.1 11 Oeste 24 Oeste 0 -- -- 69
2020-03-08 08:00:00 5.3 14 Noroeste 19 Noroeste 0 -- -- 80
2020-03-08 07:00:00 5.2 14 Noroeste 21 Noroeste 0 -- -- 79
2020-03-08 06:00:00 5.5 13 Oeste 22 Noroeste 0 -- -- 77
2020-03-08 05:00:00 4.7 12 Noroeste 24 Noroeste 0 -- -- 82
2020-03-08 04:00:00 6.2 18 Noroeste 30 Oeste 0 -- -- 77
2020-03-08 03:00:00 7.3 21 Oeste 29 Oeste 0 -- -- 73
2020-03-08 02:00:00 6.8 12 Oeste 21 Oeste 0 -- -- 77
2020-03-08 01:00:00 7.1 11 Oeste 41 Noroeste 0 -- -- 77
2020-03-08 00:00:00 8.6 27 Noroeste 42 Noroeste 0 -- -- 71
2020-03-07 23:00:00 9.3 27 Noroeste 44 Noroeste 0 -- -- 70
2020-03-07 22:00:00 9.7 27 Noroeste 53 Noroeste 0 -- -- 67
2020-03-07 21:00:00 9.7 33 Noroeste 52 Noroeste 0 -- -- 69
2020-03-07 20:00:00 10.3 21 Noroeste 55 Noroeste 0 -- -- 66
2020-03-07 19:00:00 11.1 38 Noroeste 57 Noroeste 0 -- -- 63
2020-03-07 18:00:00 13.7 46 Norte 67 Noroeste 0 -- -- 50
2020-03-07 17:00:00 13.7 44 Noroeste 72 Noroeste 0 -- -- 53
2020-03-07 16:00:00 14.6 47 Noroeste 74 Noroeste 0 -- -- 49
2020-03-07 15:00:00 14.8 48 Noroeste 76 Noroeste 0 -- -- 48
2020-03-07 14:00:00 14.6 45 Noroeste 78 Noroeste 0 -- -- 46
2020-03-07 13:00:00 13.2 45 Noroeste 75 Noroeste 0 -- -- 54
2020-03-07 12:00:00 12.2 45 Noroeste 68 Noroeste 0 -- -- 56
2020-03-07 11:00:00 10.4 43 Noroeste 65 Noroeste 0 -- -- 61
2020-03-07 10:00:00 8 44 Noroeste 63 Oeste 0 -- -- 70
2020-03-07 09:00:00 6.7 45 Noroeste 60 Oeste 0 -- -- 74
2020-03-07 08:00:00 4.7 33 Oeste 45 Oeste 0 -- -- 81
2020-03-07 07:00:00 4.2 30 Noroeste 53 Oeste 0 -- -- 81
2020-03-07 06:00:00 4.1 33 Noroeste 47 Noroeste 0 -- -- 82
2020-03-07 05:00:00 3.9 24 Oeste 47 Noroeste 0 -- -- 82
2020-03-07 04:00:00 4.3 35 Noroeste 60 Noroeste 0 -- -- 79
2020-03-07 03:00:00 4.2 37 Noroeste 54 Noroeste 24.8 -- -- 79
2020-03-07 02:00:00 4.3 37 Noroeste 51 Noroeste 0.6 -- -- 77
2020-03-07 01:00:00 4.1 36 Noroeste 52 Noroeste 0 -- -- 80
2020-03-07 00:00:00 4.3 35 Noroeste 51 Noroeste 0 -- -- 79
2020-03-06 23:00:00 4.1 32 Noroeste 49 Noroeste 0 -- -- 80
2020-03-06 22:00:00 4 32 Noroeste 51 Noroeste 0 -- -- 81
2020-03-06 21:00:00 4.6 39 Noroeste 56 Noroeste 0 -- -- 80
2020-03-06 20:00:00 4.9 40 Noroeste 55 Noroeste 0 -- -- 78
2020-03-06 19:00:00 5 39 Noroeste 67 Noroeste 0 -- -- 75
2020-03-06 18:00:00 6 43 Noroeste 78 Noroeste 0 -- -- 71
2020-03-06 17:00:00 6.4 52 Noroeste 71 Noroeste 0.2 -- -- 70
2020-03-06 16:00:00 6 41 Noroeste 91 Noroeste 0 -- -- 81
2020-03-06 15:00:00 9.1 62 Noroeste 94 Noroeste 0 -- -- 52
2020-03-06 14:00:00 8.6 68 Noroeste 95 Noroeste 0.2 -- -- 52
2020-03-06 13:00:00 8.5 58 Noroeste 85 Noroeste 0 -- -- 62
2020-03-06 12:00:00 9 49 Noroeste 77 Noroeste 0 -- -- 57
2020-03-06 11:00:00 8.9 44 Noroeste 67 Noroeste 0 -- -- 59
2020-03-06 10:00:00 7 37 Noroeste 54 Noroeste 0 -- -- 70
2020-03-06 09:00:00 7.7 31 Noroeste 44 Noroeste 0 -- -- 70
2020-03-06 08:00:00 6.1 24 Oeste 41 Oeste 0 -- -- 75
2020-03-06 07:00:00 5.6 17 Oeste 30 Oeste 0 -- -- 77
2020-03-06 06:00:00 5.4 20 Oeste 36 Oeste 0 -- -- 74
2020-03-06 05:00:00 4.3 19 Oeste 30 Oeste 0 -- -- 79
2020-03-06 04:00:00 4.7 22 Oeste 30 Noroeste 0 -- -- 77
2020-03-06 03:00:00 5.3 23 Noroeste 38 Noroeste 0 -- -- 74
2020-03-06 02:00:00 5.9 26 Noroeste 37 Noroeste 0 -- -- 71
2020-03-06 01:00:00 6.4 29 Noroeste 44 Noroeste 0 -- -- 70
2020-03-06 00:00:00 6.5 28 Noroeste 46 Noroeste 0 -- -- 67
2020-03-05 23:00:00 7.2 32 Noroeste 57 Noroeste 0 -- -- 62
2020-03-05 22:00:00 8.1 41 Noroeste 67 Noroeste 0 -- -- 59
2020-03-05 21:00:00 9.1 40 Noroeste 67 Noroeste 0 -- -- 58
2020-03-05 20:00:00 10 35 Noroeste 51 Noroeste 0 -- -- 58
2020-03-05 19:00:00 10.8 35 Noroeste 57 Norte 0 -- -- 61
2020-03-05 18:00:00 11.4 37 Norte 58 Noroeste 0 -- -- 63
2020-03-05 17:00:00 13.6 44 Norte 64 Noroeste 0 -- -- 54
2020-03-05 16:00:00 13.9 34 Noroeste 65 Norte 0 -- -- 56
2020-03-05 15:00:00 15.4 33 Noroeste 56 Oeste 0 -- -- 61
2020-03-05 14:00:00 16 48 Oeste 80 Oeste 0 -- -- 49
2020-03-05 13:00:00 17.5 42 Oeste 65 Oeste 0 -- -- 54
2020-03-05 12:00:00 17.1 31 Oeste 50 Oeste 0 -- -- 55
2020-03-05 11:00:00 14.8 28 Oeste 42 Oeste 0 -- -- 61
2020-03-05 10:00:00 13.2 22 Oeste 36 Sudoeste 0 -- -- 66
2020-03-05 09:00:00 9.7 6 Sur 11 Este 0 -- -- 82
2020-03-05 08:00:00 9.2 4 Nordeste 9 Noroeste 0 -- -- 83
2020-03-05 07:00:00 10.3 7 Norte 10 Noroeste 0 -- -- 78
2020-03-05 06:00:00 10.8 4 Noroeste 10 Oeste 0 -- -- 75
2020-03-05 05:00:00 11.9 10 Oeste 19 Oeste 0 -- -- 72
2020-03-05 04:00:00 11.1 15 Oeste 18 Oeste 0 -- -- 75
2020-03-05 03:00:00 11.5 9 Noroeste 13 Noroeste 0 -- -- 73
2020-03-05 02:00:00 13.1 5 Sudoeste 22 Oeste 0 -- -- 66
2020-03-05 01:00:00 13.8 16 Oeste 26 Oeste 0 -- -- 64
2020-03-05 00:00:00 14.1 13 Oeste 29 Oeste 0 -- -- 64